Time;durP1;ratioP1;P1;durP2;ratioP2;P2;SDS_P1;SDS_P2;PMS_P1;PMS_P2;Temp;Humidity;BMP_temperature;BMP_pressure;BME280_temperature;BME280_humidity;BME280_pressure;Samples;Min_cycle;Max_cycle;Signal;HPM_P1;HPM_P2
2020/12/14 00:00:08;;;;;;;9.90;7.60;;;20.20;46.40;;;;;;5069828;28;20508;-69
2020/12/14 00:02:34;;;;;;;10.63;7.40;;;20.20;46.40;;;;;;5071287;28;20477;-71
2020/12/14 00:05:00;;;;;;;8.97;6.87;;;20.20;46.50;;;;;;5071515;28;20486;-69
2020/12/14 00:07:26;;;;;;;8.70;7.57;;;20.20;46.50;;;;;;5059920;28;20516;-69
2020/12/14 00:09:52;;;;;;;10.13;8.20;;;20.10;46.50;;;;;;5065455;28;20487;-69
2020/12/14 00:12:18;;;;;;;10.17;7.40;;;20.10;46.60;;;;;;5040224;28;20490;-69
2020/12/14 00:14:44;;;;;;;9.80;7.27;;;20.10;46.70;;;;;;5050541;28;20497;-69
2020/12/14 00:17:11;;;;;;;9.63;8.10;;;20.10;46.70;;;;;;5048590;28;20477;-69
2020/12/14 00:19:37;;;;;;;9.73;7.90;;;20.10;46.70;;;;;;5067719;28;20849;-71
2020/12/14 00:22:04;;;;;;;9.47;8.20;;;20.00;46.60;;;;;;5069851;28;20833;-70
2020/12/14 00:24:30;;;;;;;8.50;7.40;;;20.00;46.60;;;;;;5071248;28;20929;-70
2020/12/14 00:26:56;;;;;;;11.70;8.60;;;20.00;46.60;;;;;;5069301;28;20478;-70
2020/12/14 00:29:22;;;;;;;12.40;7.33;;;20.00;46.60;;;;;;5061693;28;20594;-70
2020/12/14 00:31:51;;;;;;;13.10;7.60;;;20.00;46.60;;;;;;5070889;28;20484;-71
2020/12/14 00:34:19;;;;;;;9.13;7.30;;;20.00;46.60;;;;;;5070603;28;20507;-69
2020/12/14 00:36:45;;;;;;;9.13;7.23;;;20.00;46.60;;;;;;5080073;28;20477;-70
2020/12/14 00:39:11;;;;;;;8.07;7.23;;;20.00;46.60;;;;;;5078817;28;20484;-70
2020/12/14 00:41:37;;;;;;;11.97;7.57;;;20.00;46.60;;;;;;5076212;28;21187;-69
2020/12/14 00:44:03;;;;;;;8.10;7.30;;;20.00;46.60;;;;;;5072407;28;20492;-69
2020/12/14 00:46:29;;;;;;;11.30;8.00;;;20.00;46.60;;;;;;5077448;28;20481;-68
2020/12/14 00:48:56;;;;;;;11.77;8.30;;;20.00;46.60;;;;;;5066585;28;20498;-68
2020/12/14 00:51:26;;;;;;;10.83;7.07;;;20.10;46.80;;;;;;5071417;28;20477;-69
2020/12/14 00:53:52;;;;;;;9.23;7.40;;;20.10;46.70;;;;;;5051726;28;20592;-70
2020/12/14 00:56:19;;;;;;;9.67;7.50;;;20.10;46.70;;;;;;5070301;28;20515;-70
2020/12/14 00:58:45;;;;;;;8.37;7.43;;;20.00;46.60;;;;;;5070598;28;20481;-69
2020/12/14 01:01:14;;;;;;;8.77;7.40;;;20.00;46.60;;;;;;5072377;28;20473;-70
2020/12/14 01:03:40;;;;;;;10.77;7.40;;;20.00;46.60;;;;;;5059561;28;20547;-70
2020/12/14 01:06:06;;;;;;;8.57;7.00;;;20.00;46.60;;;;;;5070886;28;20490;-68
2020/12/14 01:08:33;;;;;;;8.53;7.47;;;20.00;46.60;;;;;;5069996;28;21056;-69
2020/12/14 01:10:59;;;;;;;7.97;7.07;;;20.00;46.60;;;;;;5034317;28;20492;-68
2020/12/14 01:13:26;;;;;;;9.47;7.00;;;20.00;46.60;;;;;;5054835;28;20480;-69
2020/12/14 01:15:52;;;;;;;7.40;6.53;;;20.00;46.60;;;;;;5058951;28;20489;-69
2020/12/14 01:18:18;;;;;;;7.97;7.07;;;19.90;46.50;;;;;;5068327;28;20473;-69
2020/12/14 01:20:46;;;;;;;8.20;6.70;;;19.90;46.50;;;;;;5052044;28;20477;-69
2020/12/14 01:23:12;;;;;;;7.60;6.03;;;19.90;46.50;;;;;;5057008;28;20474;-69
2020/12/14 01:25:39;;;;;;;9.90;7.10;;;19.90;46.50;;;;;;5069775;28;20477;-70
2020/12/14 01:28:06;;;;;;;9.00;6.43;;;19.90;46.50;;;;;;5069874;28;20518;-70
2020/12/14 01:30:32;;;;;;;7.87;6.50;;;19.90;46.50;;;;;;5069965;28;20514;-70
2020/12/14 01:32:59;;;;;;;7.60;6.20;;;19.90;46.60;;;;;;5058589;28;20877;-69
2020/12/14 01:35:25;;;;;;;9.10;8.20;;;19.90;46.60;;;;;;5072511;28;20878;-70
2020/12/14 01:37:51;;;;;;;6.40;5.80;;;19.90;46.60;;;;;;5069218;28;20492;-69
2020/12/14 01:40:18;;;;;;;10.70;6.90;;;19.90;46.50;;;;;;5071536;28;20568;-70
2020/12/14 01:42:45;;;;;;;6.40;5.80;;;19.80;46.40;;;;;;5066373;28;20512;-68
2020/12/14 01:45:11;;;;;;;9.10;6.10;;;19.90;46.50;;;;;;5065664;28;21013;-70
2020/12/14 01:47:38;;;;;;;9.20;7.40;;;19.90;46.60;;;;;;5068454;28;21574;-71
2020/12/14 01:50:05;;;;;;;8.70;5.87;;;19.90;46.50;;;;;;5059268;28;20500;-71
2020/12/14 01:52:31;;;;;;;7.43;6.70;;;19.90;46.50;;;;;;5068638;28;20493;-69
2020/12/14 01:54:57;;;;;;;8.03;6.20;;;19.90;46.50;;;;;;5070066;28;20493;-69
2020/12/14 01:57:23;;;;;;;7.07;6.30;;;19.90;46.50;;;;;;5070598;28;20469;-70
2020/12/14 01:59:50;;;;;;;11.40;6.90;;;19.90;46.50;;;;;;5066333;28;20491;-69
2020/12/14 02:02:16;;;;;;;11.00;6.13;;;19.90;46.60;;;;;;5070612;28;20485;-71
2020/12/14 02:04:42;;;;;;;6.20;5.60;;;19.90;46.60;;;;;;5057837;28;20475;-70
2020/12/14 02:07:10;;;;;;;6.80;5.20;;;19.90;46.60;;;;;;5070333;28;20472;-70
2020/12/14 02:09:36;;;;;;;5.30;4.90;;;19.90;46.50;;;;;;5068936;28;20476;-69
2020/12/14 02:12:02;;;;;;;6.10;5.50;;;19.90;46.50;;;;;;5073986;28;20835;-71
2020/12/14 02:14:28;;;;;;;5.53;5.13;;;19.90;47.00;;;;;;5073006;28;20922;-69
2020/12/14 02:16:55;;;;;;;6.97;5.57;;;19.90;46.60;;;;;;5071817;28;20478;-69
2020/12/14 02:19:21;;;;;;;5.73;5.23;;;19.90;46.50;;;;;;5063754;28;20495;-69
2020/12/14 02:21:49;;;;;;;5.30;4.80;;;19.90;46.50;;;;;;5073096;28;20491;-69
2020/12/14 02:24:16;;;;;;;5.83;5.30;;;19.90;46.50;;;;;;5060986;28;20992;-69
2020/12/14 02:26:48;;;;;;;7.00;5.50;;;19.90;46.50;;;;;;5060874;28;20492;-69
2020/12/14 02:29:14;;;;;;;5.63;5.03;;;19.90;47.30;;;;;;5058408;28;20989;-69
2020/12/14 02:31:40;;;;;;;7.27;5.50;;;19.80;46.40;;;;;;5072840;28;20484;-69
2020/12/14 02:34:07;;;;;;;5.73;5.23;;;19.90;46.50;;;;;;5073096;28;20500;-69
2020/12/14 02:36:33;;;;;;;5.03;4.63;;;19.80;46.50;;;;;;5073304;28;21001;-70
2020/12/14 02:38:59;;;;;;;5.60;5.10;;;19.80;46.40;;;;;;5073671;28;20897;-69
2020/12/14 02:41:26;;;;;;;7.60;5.77;;;19.80;46.40;;;;;;5073449;28;20499;-70
2020/12/14 02:43:52;;;;;;;4.80;4.40;;;19.80;46.40;;;;;;5061428;28;21246;-69
2020/12/14 02:46:18;;;;;;;5.33;4.83;;;19.80;46.40;;;;;;5072573;28;20999;-70
2020/12/14 02:48:44;;;;;;;4.60;4.23;;;19.80;46.50;;;;;;5072849;28;20859;-69
2020/12/14 02:51:10;;;;;;;6.70;6.10;;;19.80;46.50;;;;;;5072293;28;20541;-70
2020/12/14 02:53:37;;;;;;;6.37;5.50;;;19.90;46.60;;;;;;5073788;28;21590;-69
2020/12/14 02:56:05;;;;;;;5.40;4.90;;;19.90;46.60;;;;;;5061999;28;20491;-70
2020/12/14 02:58:32;;;;;;;5.40;5.00;;;19.80;47.20;;;;;;5072909;28;20489;-69
2020/12/14 03:00:59;;;;;;;5.10;4.33;;;19.80;46.40;;;;;;5071154;28;20485;-70
2020/12/14 03:03:25;;;;;;;5.33;4.90;;;19.80;46.40;;;;;;5071586;28;20480;-70
2020/12/14 03:05:51;;;;;;;6.73;5.27;;;19.80;46.40;;;;;;5071716;28;21484;-69
2020/12/14 03:08:17;;;;;;;7.33;4.97;;;19.80;46.40;;;;;;5073523;28;20980;-68
2020/12/14 03:10:43;;;;;;;5.53;4.70;;;19.80;46.50;;;;;;5060245;28;20476;-70
2020/12/14 03:13:10;;;;;;;5.50;5.00;;;19.80;46.40;;;;;;5066495;28;20481;-70
2020/12/14 03:15:39;;;;;;;4.80;4.37;;;19.80;46.40;;;;;;5070598;28;20474;-69
2020/12/14 03:18:06;;;;;;;4.73;4.43;;;19.80;46.40;;;;;;5051086;28;20529;-69
2020/12/14 03:20:32;;;;;;;4.93;4.53;;;19.80;46.40;;;;;;5053594;28;20573;-69
2020/12/14 03:22:59;;;;;;;5.23;4.73;;;19.70;46.40;;;;;;5051322;28;20482;-69
2020/12/14 03:25:25;;;;;;;5.17;4.67;;;19.70;46.40;;;;;;5054876;28;20516;-70
2020/12/14 03:27:51;;;;;;;4.93;4.53;;;19.80;46.50;;;;;;5051308;28;20482;-69
2020/12/14 03:30:17;;;;;;;4.60;4.27;;;19.80;46.50;;;;;;5052327;28;20851;-69
2020/12/14 03:32:45;;;;;;;4.73;4.10;;;19.80;46.50;;;;;;5068353;28;20908;-69
2020/12/14 03:35:11;;;;;;;5.23;4.87;;;19.80;46.40;;;;;;5072642;28;20472;-69
2020/12/14 03:37:37;;;;;;;6.57;4.40;;;19.80;46.40;;;;;;5069984;28;21562;-70
2020/12/14 03:40:03;;;;;;;4.23;3.83;;;19.80;46.40;;;;;;5062499;28;20485;-70
2020/12/14 03:42:30;;;;;;;4.33;3.93;;;19.80;46.40;;;;;;5070298;28;21532;-70
2020/12/14 03:44:56;;;;;;;4.97;4.47;;;19.80;46.40;;;;;;5072877;28;20490;-69
2020/12/14 03:47:22;;;;;;;5.57;4.40;;;19.80;46.50;;;;;;5071898;28;20472;-70
2020/12/14 03:49:49;;;;;;;4.23;3.83;;;19.80;46.40;;;;;;5071851;28;20490;-69
2020/12/14 03:52:15;;;;;;;4.23;3.80;;;19.80;46.40;;;;;;5068694;28;20486;-70
2020/12/14 03:54:41;;;;;;;4.53;3.83;;;19.70;46.40;;;;;;5069935;28;20485;-68
2020/12/14 03:57:07;;;;;;;4.73;4.43;;;19.80;46.40;;;;;;5062615;28;21131;-69
2020/12/14 03:59:33;;;;;;;4.50;4.10;;;19.80;46.40;;;;;;5065945;28;20895;-69
2020/12/14 04:02:00;;;;;;;4.83;4.37;;;19.80;46.50;;;;;;5070490;28;20549;-69
2020/12/14 04:04:26;;;;;;;4.70;4.30;;;19.80;46.50;;;;;;5073207;28;20482;-70
2020/12/14 04:06:56;;;;;;;4.03;3.70;;;19.80;46.40;;;;;;5071951;28;20492;-69
2020/12/14 04:09:22;;;;;;;10.17;3.87;;;19.80;46.40;;;;;;5073424;28;20586;-69
2020/12/14 04:11:48;;;;;;;4.40;4.03;;;19.80;46.40;;;;;;5069373;28;20493;-69
2020/12/14 04:14:15;;;;;;;4.00;3.53;;;19.70;46.40;;;;;;5070285;28;20495;-70
2020/12/14 04:16:42;;;;;;;3.70;3.30;;;19.70;46.40;;;;;;5059695;28;20928;-70
2020/12/14 04:19:08;;;;;;;3.33;3.20;;;19.70;46.40;;;;;;5071605;28;20488;-70
2020/12/14 04:21:34;;;;;;;3.50;3.30;;;19.70;46.40;;;;;;5060204;28;21627;-70
2020/12/14 04:24:01;;;;;;;4.63;3.80;;;19.60;46.30;;;;;;5073555;28;20585;-70
2020/12/14 04:26:28;;;;;;;3.20;3.00;;;19.70;46.40;;;;;;5082063;28;20847;-70
2020/12/14 04:28:54;;;;;;;3.10;2.90;;;19.70;46.40;;;;;;5075286;28;20512;-68
2020/12/14 04:31:20;;;;;;;3.47;3.27;;;19.70;47.20;;;;;;5063842;28;20489;-70
2020/12/14 04:33:46;;;;;;;3.83;3.37;;;19.70;46.40;;;;;;5070060;28;20497;-68
2020/12/14 04:36:13;;;;;;;2.97;2.77;;;19.70;46.40;;;;;;5073295;28;21527;-70
2020/12/14 04:38:40;;;;;;;3.67;3.40;;;19.70;46.40;;;;;;5072568;28;20858;-68
2020/12/14 04:41:06;;;;;;;3.40;3.20;;;19.70;46.40;;;;;;5060499;28;20493;-70
2020/12/14 04:43:33;;;;;;;3.50;3.20;;;19.70;46.40;;;;;;5069618;28;21096;-69
2020/12/14 04:45:59;;;;;;;3.63;3.30;;;19.70;46.40;;;;;;5066338;28;20859;-68
2020/12/14 04:48:26;;;;;;;3.20;2.83;;;19.70;46.40;;;;;;5072415;28;20851;-69
2020/12/14 04:50:52;;;;;;;4.03;3.50;;;19.70;46.40;;;;;;5070866;28;20860;-68
2020/12/14 04:53:18;;;;;;;3.30;3.03;;;19.70;46.40;;;;;;5069778;28;20897;-68
2020/12/14 04:55:44;;;;;;;3.07;2.97;;;19.70;46.40;;;;;;5074545;28;20908;-69
2020/12/14 04:58:11;;;;;;;2.87;2.70;;;19.80;46.50;;;;;;5060580;28;20834;-69
2020/12/14 05:00:37;;;;;;;3.90;3.70;;;19.80;46.40;;;;;;5071302;28;20481;-68
2020/12/14 05:03:03;;;;;;;2.73;2.53;;;19.80;46.40;;;;;;5069075;28;21663;-69
2020/12/14 05:05:30;;;;;;;2.87;2.67;;;19.80;46.40;;;;;;5073618;28;21218;-70
2020/12/14 05:07:56;;;;;;;3.90;3.03;;;19.80;46.40;;;;;;5073583;28;20850;-70
2020/12/14 05:10:23;;;;;;;2.70;2.50;;;19.80;46.50;;;;;;5070535;28;20481;-71
2020/12/14 05:12:49;;;;;;;2.37;2.23;;;19.80;46.40;;;;;;5073185;28;21355;-69
2020/12/14 05:15:20;;;;;;;2.73;2.63;;;19.80;46.40;;;;;;5064596;28;21055;-70
2020/12/14 05:17:47;;;;;;;2.43;2.33;;;19.80;46.40;;;;;;5052660;28;20476;-69
2020/12/14 05:20:17;;;;;;;3.23;3.03;;;19.80;46.40;;;;;;5071093;28;20488;-69
2020/12/14 05:22:56;;;;;;;3.23;3.03;;;19.80;46.40;;;;;;5069644;28;20476;-70
2020/12/14 05:25:23;;;;;;;2.37;2.27;;;19.80;46.50;;;;;;5070900;28;20473;-69
2020/12/14 05:27:51;;;;;;;3.17;2.87;;;19.80;46.40;;;;;;5063498;28;20608;-69
2020/12/14 05:30:18;;;;;;;4.07;3.07;;;19.80;46.40;;;;;;5056083;28;20472;-68
2020/12/14 05:32:45;;;;;;;2.73;2.53;;;19.80;46.40;;;;;;5051021;28;20492;-69
2020/12/14 05:35:11;;;;;;;2.80;2.50;;;19.80;46.40;;;;;;5069089;28;20847;-68
2020/12/14 05:37:38;;;;;;;2.83;2.63;;;19.90;46.30;;;;;;5072103;28;21185;-70
2020/12/14 05:40:09;;;;;;;3.10;2.80;;;19.80;46.20;;;;;;5060606;28;20513;-69
2020/12/14 05:42:40;;;;;;;2.37;2.23;;;19.80;46.30;;;;;;5069640;28;20473;-69
2020/12/14 05:45:10;;;;;;;2.63;2.53;;;19.80;46.40;;;;;;5057274;28;21587;-69
2020/12/14 05:47:36;;;;;;;2.50;2.40;;;19.70;46.40;;;;;;5068897;28;20481;-70
2020/12/14 05:50:04;;;;;;;3.73;2.40;;;19.70;46.40;;;;;;5072001;28;20536;-69
2020/12/14 05:52:32;;;;;;;2.37;2.27;;;19.70;46.50;;;;;;5069573;28;20484;-70
2020/12/14 05:54:59;;;;;;;2.03;1.93;;;19.70;46.70;;;;;;5060763;28;21068;-68
2020/12/14 05:57:32;;;;;;;2.20;2.10;;;19.70;46.70;;;;;;5069400;28;20980;-69
2020/12/14 06:00:00;;;;;;;2.50;2.30;;;19.80;46.50;;;;;;5067854;28;20961;-68
2020/12/14 06:02:26;;;;;;;2.83;2.73;;;19.90;46.60;;;;;;5068618;28;20473;-69
2020/12/14 06:04:55;;;;;;;2.00;1.90;;;19.90;46.30;;;;;;5051577;28;21296;-69
2020/12/14 06:07:24;;;;;;;2.13;2.03;;;20.00;46.30;;;;;;5070917;28;20488;-69
2020/12/14 06:09:52;;;;;;;2.17;2.07;;;20.00;46.00;;;;;;5069629;28;20508;-69
2020/12/14 06:12:18;;;;;;;2.57;2.40;;;20.00;46.00;;;;;;5046668;28;20482;-68
2020/12/14 06:14:44;;;;;;;2.00;1.90;;;19.90;46.20;;;;;;5062842;28;20496;-69
2020/12/14 06:17:10;;;;;;;2.07;1.97;;;19.90;46.50;;;;;;5055682;28;20478;-69
2020/12/14 06:19:37;;;;;;;2.57;2.37;;;19.90;46.50;;;;;;5071918;28;20561;-69
2020/12/14 06:22:05;;;;;;;2.20;2.10;;;19.90;46.60;;;;;;5064611;28;20555;-68
2020/12/14 06:24:32;;;;;;;2.13;1.93;;;19.90;46.60;;;;;;5012390;28;21141;-69
2020/12/14 06:26:59;;;;;;;2.33;2.23;;;19.90;46.30;;;;;;5043976;28;20489;-69
2020/12/14 06:29:31;;;;;;;2.40;2.30;;;19.90;46.30;;;;;;5048682;28;20475;-69
2020/12/14 06:31:58;;;;;;;2.07;1.97;;;19.90;46.00;;;;;;5033462;28;20471;-68
2020/12/14 06:34:39;;;;;;;2.70;2.30;;;19.90;46.00;;;;;;5033505;28;20893;-67
2020/12/14 06:37:05;;;;;;;2.37;2.27;;;19.90;46.00;;;;;;5030043;28;21239;-68
2020/12/14 06:39:33;;;;;;;2.00;1.83;;;19.90;46.10;;;;;;5047919;28;20675;-67
2020/12/14 06:42:21;;;;;;;2.10;1.90;;;19.80;46.00;;;;;;5048964;28;20478;-67
2020/12/14 06:45:21;;;;;;;3.60;2.70;;;19.80;46.10;;;;;;5033841;28;20553;-68
2020/12/14 06:47:53;;;;;;;2.03;1.93;;;19.70;46.40;;;;;;5043565;28;21005;-67
2020/12/14 06:50:30;;;;;;;2.80;2.03;;;19.70;46.40;;;;;;5049654;28;20484;-68
2020/12/14 06:52:56;;;;;;;2.70;1.97;;;19.70;46.40;;;;;;5042805;28;20478;-67
2020/12/14 06:55:45;;;;;;;1.70;1.60;;;19.70;46.40;;;;;;5058845;28;20504;-67
2020/12/14 06:58:28;;;;;;;3.60;2.17;;;19.70;46.50;;;;;;5051636;28;20482;-69
2020/12/14 07:00:54;;;;;;;2.03;1.90;;;19.70;46.40;;;;;;5051356;28;21008;-68
2020/12/14 07:03:29;;;;;;;1.90;1.80;;;19.70;46.40;;;;;;5033720;28;20520;-68
2020/12/14 07:05:58;;;;;;;2.10;2.00;;;19.70;46.40;;;;;;5028259;28;22453;-67
2020/12/14 07:08:27;;;;;;;2.10;1.90;;;19.70;46.40;;;;;;5051618;28;20573;-68
2020/12/14 07:11:18;;;;;;;5.57;2.17;;;19.70;46.40;;;;;;5050173;28;20489;-67
2020/12/14 07:13:45;;;;;;;2.33;1.67;;;19.80;46.40;;;;;;5029917;28;20494;-68
2020/12/14 07:16:12;;;;;;;3.13;2.83;;;19.80;46.40;;;;;;5041703;28;20473;-67
2020/12/14 07:18:38;;;;;;;2.03;1.90;;;19.80;46.40;;;;;;5047335;28;20538;-67
2020/12/14 07:21:09;;;;;;;1.60;1.43;;;19.80;46.40;;;;;;5051073;28;20478;-68
2020/12/14 07:23:36;;;;;;;1.37;1.37;;;19.80;46.50;;;;;;5041753;28;20485;-68
2020/12/14 07:26:02;;;;;;;3.37;2.17;;;19.80;46.40;;;;;;5040267;28;20481;-68
2020/12/14 07:28:40;;;;;;;3.20;2.27;;;19.80;46.40;;;;;;5023851;28;20490;-68
2020/12/14 07:31:07;;;;;;;4.97;1.93;;;19.70;46.40;;;;;;5015343;28;20493;-66
2020/12/14 07:33:34;;;;;;;2.30;2.10;;;19.70;46.70;;;;;;5045364;28;20507;-67
2020/12/14 07:36:08;;;;;;;1.77;1.67;;;19.70;46.70;;;;;;5068425;28;20493;-69
2020/12/14 07:38:34;;;;;;;3.07;1.93;;;19.60;46.70;;;;;;5071919;28;21103;-67
2020/12/14 07:41:05;;;;;;;2.33;2.17;;;19.70;46.90;;;;;;5032427;28;20537;-68
2020/12/14 07:43:31;;;;;;;1.73;1.63;;;19.70;46.90;;;;;;5039632;28;20875;-67
2020/12/14 07:45:58;;;;;;;1.43;1.43;;;19.70;47.00;;;;;;5051125;28;20846;-68
2020/12/14 07:48:24;;;;;;;1.67;1.57;;;19.60;46.90;;;;;;5052120;28;20478;-67
2020/12/14 07:50:50;;;;;;;1.67;1.57;;;19.60;47.00;;;;;;5030321;28;20493;-68
2020/12/14 07:53:16;;;;;;;1.63;1.53;;;19.60;47.00;;;;;;5045371;28;20490;-68
2020/12/14 07:55:42;;;;;;;1.20;1.20;;;19.60;47.10;;;;;;5027006;28;20484;-67
2020/12/14 07:58:09;;;;;;;1.77;1.67;;;19.60;47.10;;;;;;5011229;28;20505;-67
2020/12/14 08:00:35;;;;;;;1.50;1.40;;;19.60;47.20;;;;;;5033267;28;20477;-68
2020/12/14 08:03:04;;;;;;;1.77;1.67;;;19.60;47.20;;;;;;5047060;28;20518;-68
2020/12/14 08:05:30;;;;;;;1.70;1.63;;;19.60;47.20;;;;;;5044682;28;20482;-68
2020/12/14 08:08:01;;;;;;;1.73;1.57;;;19.60;47.30;;;;;;5039217;28;20486;-67
2020/12/14 08:10:31;;;;;;;1.50;1.40;;;19.60;47.30;;;;;;5049991;28;20541;-68
2020/12/14 08:12:57;;;;;;;1.50;1.40;;;19.60;47.20;;;;;;5020873;28;20478;-68
2020/12/14 08:15:23;;;;;;;1.00;1.00;;;19.60;47.20;;;;;;5056442;28;20518;-69
2020/12/14 08:17:49;;;;;;;1.57;1.47;;;19.60;47.20;;;;;;5049459;28;20485;-67
2020/12/14 08:20:27;;;;;;;1.27;1.27;;;19.70;47.30;;;;;;5037035;28;20481;-69
2020/12/14 08:22:53;;;;;;;1.03;1.03;;;19.70;47.10;;;;;;5049822;28;20488;-68
2020/12/14 08:25:20;;;;;;;1.70;1.60;;;19.70;46.90;;;;;;5050225;28;20506;-69
2020/12/14 08:27:49;;;;;;;1.53;1.53;;;19.80;46.90;;;;;;5050524;28;20481;-68
2020/12/14 08:30:16;;;;;;;1.20;1.20;;;19.80;46.90;;;;;;5049773;28;20480;-68
2020/12/14 08:32:42;;;;;;;1.30;1.30;;;19.70;46.90;;;;;;5049498;28;20482;-68
2020/12/14 08:35:20;;;;;;;1.70;1.60;;;19.70;47.10;;;;;;5041192;28;20477;-68
2020/12/14 08:37:48;;;;;;;1.20;1.20;;;19.70;47.10;;;;;;5047327;28;20553;-68
2020/12/14 08:40:14;;;;;;;1.50;1.40;;;19.70;47.10;;;;;;5045588;28;20474;-68
2020/12/14 08:42:41;;;;;;;1.57;1.30;;;19.70;47.20;;;;;;5033751;28;20505;-68
2020/12/14 08:45:08;;;;;;;1.40;1.30;;;19.70;47.30;;;;;;5039811;28;20498;-67
2020/12/14 08:47:38;;;;;;;1.33;1.23;;;19.70;47.20;;;;;;5036070;28;20482;-67
2020/12/14 08:50:05;;;;;;;1.37;1.37;;;19.70;47.20;;;;;;5053855;28;20487;-67
2020/12/14 08:52:31;;;;;;;1.63;1.53;;;19.80;47.20;;;;;;5041546;28;20489;-67
2020/12/14 08:54:58;;;;;;;1.50;1.40;;;19.80;47.10;;;;;;5049326;28;20501;-68
2020/12/14 08:57:25;;;;;;;1.40;1.37;;;19.80;47.00;;;;;;5059657;28;20855;-68
2020/12/14 09:00:05;;;;;;;1.17;1.17;;;19.90;47.00;;;;;;5043624;28;21606;-67
2020/12/14 09:02:32;;;;;;;1.70;1.20;;;19.90;47.00;;;;;;5055583;28;21441;-68
2020/12/14 09:04:58;;;;;;;1.87;1.77;;;19.90;46.90;;;;;;5049780;28;20493;-67
2020/12/14 09:07:24;;;;;;;1.20;1.20;;;19.80;46.80;;;;;;5045286;28;21005;-68
2020/12/14 09:09:50;;;;;;;1.70;1.47;;;19.80;47.00;;;;;;5072610;28;20864;-68
2020/12/14 09:12:17;;;;;;;1.13;1.13;;;19.80;47.30;;;;;;5050914;28;20560;-67
2020/12/14 09:14:44;;;;;;;1.00;1.00;;;19.80;47.30;;;;;;5007678;28;20597;-67
2020/12/14 09:17:13;;;;;;;1.20;1.20;;;19.80;47.20;;;;;;5047505;28;21572;-68
2020/12/14 09:19:39;;;;;;;1.30;1.30;;;19.80;47.10;;;;;;5045807;28;23131;-67
2020/12/14 09:22:05;;;;;;;1.53;1.33;;;19.80;46.90;;;;;;5045662;28;20521;-68
2020/12/14 09:24:32;;;;;;;8.43;1.77;;;19.90;47.00;;;;;;5046837;28;20483;-67
2020/12/14 09:27:03;;;;;;;1.20;1.20;;;19.90;46.90;;;;;;5047855;28;20537;-67
2020/12/14 09:29:30;;;;;;;1.70;1.60;;;19.90;46.90;;;;;;5048674;28;20520;-68
2020/12/14 09:31:56;;;;;;;1.17;1.07;;;20.00;46.90;;;;;;5048479;28;20502;-68
2020/12/14 09:34:23;;;;;;;1.10;1.10;;;20.00;46.70;;;;;;5044745;28;20493;-68
2020/12/14 09:36:50;;;;;;;1.77;1.00;;;20.00;46.60;;;;;;5024561;28;20875;-67
2020/12/14 09:39:16;;;;;;;1.77;1.67;;;20.00;46.70;;;;;;4995733;28;20518;-68
2020/12/14 09:41:42;;;;;;;1.37;1.27;;;20.00;46.70;;;;;;5045011;28;20496;-68
2020/12/14 09:44:09;;;;;;;1.93;1.53;;;20.00;46.70;;;;;;5013013;28;20578;-69
2020/12/14 09:46:36;;;;;;;1.50;1.50;;;20.00;46.60;;;;;;5007807;28;20493;-69
2020/12/14 09:49:02;;;;;;;1.10;0.97;;;20.00;46.60;;;;;;5031760;28;20485;-68
2020/12/14 09:51:28;;;;;;;2.10;2.00;;;20.10;46.70;;;;;;5042520;28;20848;-69
2020/12/14 09:53:54;;;;;;;1.40;1.40;;;20.10;46.70;;;;;;5031247;28;20508;-68
2020/12/14 09:56:20;;;;;;;1.10;0.90;;;20.10;46.70;;;;;;5026515;28;20489;-68
2020/12/14 09:58:47;;;;;;;1.03;1.03;;;20.10;46.70;;;;;;5033059;28;21561;-68
2020/12/14 10:01:13;;;;;;;0.90;0.90;;;20.10;46.70;;;;;;5008177;28;20490;-67
2020/12/14 10:03:40;;;;;;;1.10;1.10;;;20.10;46.70;;;;;;5043271;28;20474;-68
2020/12/14 10:06:06;;;;;;;1.20;1.20;;;20.10;46.80;;;;;;5020339;28;21417;-67
2020/12/14 10:08:32;;;;;;;1.37;1.27;;;20.10;46.70;;;;;;5033748;28;20480;-67
2020/12/14 10:10:59;;;;;;;1.57;1.47;;;20.10;46.80;;;;;;5034522;28;20524;-67
2020/12/14 10:13:25;;;;;;;1.20;1.17;;;20.10;46.90;;;;;;5040849;28;20499;-68
2020/12/14 10:15:51;;;;;;;0.93;0.93;;;20.00;47.00;;;;;;5073744;28;20485;-68
2020/12/14 10:18:18;;;;;;;1.07;1.07;;;20.00;47.10;;;;;;5073730;28;20485;-67
2020/12/14 10:20:45;;;;;;;1.13;1.13;;;20.00;47.20;;;;;;5070623;28;20496;-67
2020/12/14 10:23:11;;;;;;;1.10;1.10;;;20.00;47.20;;;;;;5067621;28;20492;-68
2020/12/14 10:25:37;;;;;;;1.40;1.30;;;19.90;47.20;;;;;;5069001;28;20479;-68
2020/12/14 10:28:03;;;;;;;1.20;1.10;;;19.90;47.30;;;;;;5067888;28;20470;-67
2020/12/14 10:30:29;;;;;;;0.93;0.93;;;19.90;47.30;;;;;;5074754;28;20496;-67
2020/12/14 10:32:55;;;;;;;2.10;0.90;;;19.90;47.40;;;;;;5071421;28;21380;-69
2020/12/14 10:35:22;;;;;;;1.10;1.10;;;19.90;47.50;;;;;;5075220;28;20515;-69
2020/12/14 10:37:49;;;;;;;0.77;0.77;;;19.90;47.50;;;;;;5075038;28;20481;-65
2020/12/14 10:40:15;;;;;;;1.50;1.40;;;19.80;47.50;;;;;;5070101;28;20586;-66
2020/12/14 10:42:41;;;;;;;1.43;1.33;;;19.90;47.50;;;;;;5084479;28;20477;-67
2020/12/14 10:45:08;;;;;;;1.60;1.10;;;19.90;47.40;;;;;;5058819;28;20566;-66
2020/12/14 10:47:34;;;;;;;1.80;1.10;;;19.90;47.50;;;;;;5072215;28;20472;-67
2020/12/14 10:50:00;;;;;;;0.67;0.67;;;19.90;47.50;;;;;;5055373;28;20478;-67
2020/12/14 10:52:26;;;;;;;1.80;1.70;;;19.90;47.50;;;;;;5033616;28;20510;-66
2020/12/14 10:54:53;;;;;;;1.20;1.20;;;19.90;47.50;;;;;;5064692;28;20497;-67
2020/12/14 10:57:19;;;;;;;1.53;1.50;;;19.90;47.50;;;;;;5044526;28;20897;-67
2020/12/14 10:59:45;;;;;;;1.03;1.03;;;19.80;47.60;;;;;;5050297;28;20517;-68
2020/12/14 11:02:11;;;;;;;1.10;1.10;;;19.80;47.60;;;;;;5042121;28;20509;-67
2020/12/14 11:04:38;;;;;;;1.20;1.10;;;19.80;47.60;;;;;;5053268;28;20477;-67
2020/12/14 11:07:06;;;;;;;1.60;1.50;;;19.80;47.70;;;;;;5040999;28;20633;-67
2020/12/14 11:09:32;;;;;;;1.13;1.03;;;19.80;47.70;;;;;;5022792;28;20604;-67
2020/12/14 11:11:59;;;;;;;1.17;1.03;;;19.80;47.60;;;;;;5046313;28;20572;-67
2020/12/14 11:14:26;;;;;;;0.80;0.80;;;19.90;47.60;;;;;;5050952;28;20492;-67
2020/12/14 11:16:52;;;;;;;0.93;0.80;;;19.90;47.60;;;;;;5030536;28;20497;-66
2020/12/14 11:19:19;;;;;;;0.70;0.70;;;19.80;47.60;;;;;;5051817;28;20474;-67
2020/12/14 11:21:45;;;;;;;1.43;0.90;;;19.80;47.60;;;;;;5054094;28;20485;-67
2020/12/14 11:24:11;;;;;;;0.90;0.90;;;19.90;47.70;;;;;;5053506;28;20494;-67
2020/12/14 11:26:37;;;;;;;0.80;0.80;;;19.90;47.70;;;;;;5044109;28;20466;-67
2020/12/14 11:29:04;;;;;;;0.90;0.90;;;19.80;47.70;;;;;;5029695;28;20475;-67
2020/12/14 11:31:30;;;;;;;0.80;0.80;;;19.80;47.80;;;;;;5062265;28;20485;-67
2020/12/14 11:33:57;;;;;;;1.43;0.80;;;19.80;47.80;;;;;;5050290;28;20505;-68
2020/12/14 11:36:23;;;;;;;1.23;0.90;;;19.80;47.90;;;;;;5046684;28;20478;-67
2020/12/14 11:38:50;;;;;;;0.93;0.90;;;19.80;47.90;;;;;;5038932;28;20535;-66
2020/12/14 11:41:16;;;;;;;0.93;0.93;;;19.90;47.90;;;;;;5054307;28;20485;-67
2020/12/14 11:43:42;;;;;;;0.77;0.77;;;19.90;47.80;;;;;;5039385;28;20497;-66
2020/12/14 11:46:09;;;;;;;0.80;0.80;;;19.90;47.80;;;;;;5050437;28;20478;-67
2020/12/14 11:48:35;;;;;;;1.00;1.00;;;19.90;47.80;;;;;;5043803;28;20476;-67
2020/12/14 11:51:01;;;;;;;0.97;0.67;;;19.80;47.80;;;;;;5042448;28;20490;-67
2020/12/14 11:53:27;;;;;;;2.50;0.90;;;19.80;47.90;;;;;;5045851;28;20489;-67
2020/12/14 11:55:53;;;;;;;1.07;0.90;;;19.80;47.90;;;;;;5021283;28;20489;-68
2020/12/14 11:58:20;;;;;;;1.00;1.00;;;19.90;48.00;;;;;;5051881;28;20478;-68
2020/12/14 12:00:46;;;;;;;0.80;0.80;;;19.90;47.90;;;;;;5041878;28;20482;-67
2020/12/14 12:03:13;;;;;;;0.63;0.63;;;19.90;48.00;;;;;;5044208;28;20493;-67
2020/12/14 12:05:39;;;;;;;1.00;1.00;;;19.90;48.10;;;;;;5040845;28;20482;-67
2020/12/14 12:08:05;;;;;;;0.70;0.70;;;19.80;48.10;;;;;;5054349;28;20490;-67
2020/12/14 12:10:31;;;;;;;0.97;0.97;;;19.80;48.10;;;;;;5054247;28;20475;-67
2020/12/14 12:12:57;;;;;;;0.80;0.80;;;19.80;48.10;;;;;;5023317;28;20489;-66
2020/12/14 12:15:23;;;;;;;2.33;0.93;;;19.80;48.20;;;;;;5036617;28;20876;-67
2020/12/14 12:17:50;;;;;;;2.80;1.40;;;19.70;48.30;;;;;;5003055;28;20560;-67
2020/12/14 12:20:17;;;;;;;1.87;0.80;;;19.80;48.40;;;;;;5029268;28;20473;-68
2020/12/14 12:22:43;;;;;;;1.13;0.90;;;19.70;49.00;;;;;;5071593;28;20465;-66
2020/12/14 12:25:09;;;;;;;1.20;1.10;;;19.70;48.30;;;;;;5065846;28;20477;-66
2020/12/14 12:27:35;;;;;;;1.03;1.03;;;19.70;48.30;;;;;;5053637;28;20496;-66
2020/12/14 12:30:01;;;;;;;1.43;0.80;;;19.80;48.40;;;;;;5054242;28;20500;-67
2020/12/14 12:32:27;;;;;;;0.80;0.80;;;19.80;48.20;;;;;;5066321;28;20495;-66
2020/12/14 12:34:53;;;;;;;0.90;0.90;;;19.80;48.20;;;;;;5058574;28;20489;-66
2020/12/14 12:37:20;;;;;;;1.17;0.80;;;19.80;48.30;;;;;;5065947;28;20480;-67
2020/12/14 12:39:46;;;;;;;0.73;0.60;;;19.80;48.30;;;;;;5066504;28;21026;-67
2020/12/14 12:42:13;;;;;;;0.70;0.70;;;19.80;48.30;;;;;;5060371;28;20485;-67
2020/12/14 12:44:39;;;;;;;1.00;1.00;;;19.80;48.40;;;;;;5034958;28;20509;-68